sensor_id;sensor_type;location;lat;lon;timestamp;temperature;humidity
3752;DHT22;50827;47.014;7.652;2023-07-30T00:00:58;18.40;99.90
3752;DHT22;50827;47.014;7.652;2023-07-30T00:03:25;18.40;99.90
3752;DHT22;50827;47.014;7.652;2023-07-30T00:05:53;18.40;99.90
3752;DHT22;50827;47.014;7.652;2023-07-30T00:08:20;18.40;99.90
3752;DHT22;50827;47.014;7.652;2023-07-30T00:10:47;18.40;99.90
3752;DHT22;50827;47.014;7.652;2023-07-30T00:13:14;18.50;99.90
3752;DHT22;50827;47.014;7.652;2023-07-30T00:15:41;18.40;99.90
3752;DHT22;50827;47.014;7.652;2023-07-30T00:18:08;18.40;99.90
3752;DHT22;50827;47.014;7.652;2023-07-30T00:20:35;18.50;99.90
3752;DHT22;50827;47.014;7.652;2023-07-30T00:23:02;18.50;99.90
3752;DHT22;50827;47.014;7.652;2023-07-30T00:25:29;18.50;99.90
3752;DHT22;50827;47.014;7.652;2023-07-30T00:27:56;18.60;99.90
3752;DHT22;50827;47.014;7.652;2023-07-30T00:30:23;18.60;99.90
3752;DHT22;50827;47.014;7.652;2023-07-30T00:32:49;18.60;99.90
3752;DHT22;50827;47.014;7.652;2023-07-30T00:35:16;18.60;99.90
3752;DHT22;50827;47.014;7.652;2023-07-30T00:37:43;18.60;99.90
3752;DHT22;50827;47.014;7.652;2023-07-30T00:40:10;18.40;99.90
3752;DHT22;50827;47.014;7.652;2023-07-30T00:42:37;18.50;99.90
3752;DHT22;50827;47.014;7.652;2023-07-30T00:45:04;18.40;99.90
3752;DHT22;50827;47.014;7.652;2023-07-30T00:47:31;18.40;99.90
3752;DHT22;50827;47.014;7.652;2023-07-30T00:49:58;18.30;99.90
3752;DHT22;50827;47.014;7.652;2023-07-30T00:52:25;18.30;99.90
3752;DHT22;50827;47.014;7.652;2023-07-30T00:54:54;18.30;99.90
3752;DHT22;50827;47.014;7.652;2023-07-30T00:57:20;18.30;99.90
3752;DHT22;50827;47.014;7.652;2023-07-30T00:59:48;18.30;99.90
3752;DHT22;50827;47.014;7.652;2023-07-30T01:02:15;18.30;99.90
3752;DHT22;50827;47.014;7.652;2023-07-30T01:04:42;18.30;99.90
3752;DHT22;50827;47.014;7.652;2023-07-30T01:07:10;18.40;99.90
3752;DHT22;50827;47.014;7.652;2023-07-30T01:09:38;18.40;99.90
3752;DHT22;50827;47.014;7.652;2023-07-30T01:12:05;18.50;99.90
3752;DHT22;50827;47.014;7.652;2023-07-30T01:14:32;18.50;99.90
3752;DHT22;50827;47.014;7.652;2023-07-30T01:17:00;18.50;99.90
3752;DHT22;50827;47.014;7.652;2023-07-30T01:19:26;18.50;99.90
3752;DHT22;50827;47.014;7.652;2023-07-30T01:21:53;18.50;99.90
3752;DHT22;50827;47.014;7.652;2023-07-30T01:24:20;18.50;99.90
3752;DHT22;50827;47.014;7.652;2023-07-30T01:26:53;18.50;99.90
3752;DHT22;50827;47.014;7.652;2023-07-30T01:29:40;18.40;99.90
3752;DHT22;50827;47.014;7.652;2023-07-30T01:32:11;18.30;99.90
3752;DHT22;50827;47.014;7.652;2023-07-30T01:34:40;18.30;99.90
3752;DHT22;50827;47.014;7.652;2023-07-30T01:37:10;18.20;99.90
3752;DHT22;50827;47.014;7.652;2023-07-30T01:39:40;18.20;99.90
3752;DHT22;50827;47.014;7.652;2023-07-30T01:42:07;18.30;99.90
3752;DHT22;50827;47.014;7.652;2023-07-30T01:44:34;18.30;99.90
3752;DHT22;50827;47.014;7.652;2023-07-30T01:47:01;18.30;99.90
3752;DHT22;50827;47.014;7.652;2023-07-30T01:49:28;18.30;99.90
3752;DHT22;50827;47.014;7.652;2023-07-30T01:51:54;18.20;99.90
3752;DHT22;50827;47.014;7.652;2023-07-30T01:54:21;18.20;99.90
3752;DHT22;50827;47.014;7.652;2023-07-30T01:56:48;18.10;99.90
3752;DHT22;50827;47.014;7.652;2023-07-30T01:59:14;18.20;99.90
3752;DHT22;50827;47.014;7.652;2023-07-30T02:01:44;18.20;99.90
3752;DHT22;50827;47.014;7.652;2023-07-30T02:04:11;18.20;99.90
3752;DHT22;50827;47.014;7.652;2023-07-30T02:06:37;18.20;99.90
3752;DHT22;50827;47.014;7.652;2023-07-30T02:09:04;18.20;99.90
3752;DHT22;50827;47.014;7.652;2023-07-30T02:11:31;18.20;99.90
3752;DHT22;50827;47.014;7.652;2023-07-30T02:13:57;18.20;99.90
3752;DHT22;50827;47.014;7.652;2023-07-30T02:16:24;18.20;99.90
3752;DHT22;50827;47.014;7.652;2023-07-30T02:18:51;18.30;99.90
3752;DHT22;50827;47.014;7.652;2023-07-30T02:21:17;18.30;99.90
3752;DHT22;50827;47.014;7.652;2023-07-30T02:23:44;18.30;99.90
3752;DHT22;50827;47.014;7.652;2023-07-30T02:26:11;18.30;99.90
3752;DHT22;50827;47.014;7.652;2023-07-30T02:28:37;18.30;99.90
3752;DHT22;50827;47.014;7.652;2023-07-30T02:31:04;18.40;99.90
3752;DHT22;50827;47.014;7.652;2023-07-30T02:33:31;18.50;99.90
3752;DHT22;50827;47.014;7.652;2023-07-30T02:35:58;18.50;99.90
3752;DHT22;50827;47.014;7.652;2023-07-30T02:38:24;18.40;99.90
3752;DHT22;50827;47.014;7.652;2023-07-30T02:40:51;18.40;99.90
3752;DHT22;50827;47.014;7.652;2023-07-30T02:43:17;18.50;99.90
3752;DHT22;50827;47.014;7.652;2023-07-30T02:45:47;18.50;99.90
3752;DHT22;50827;47.014;7.652;2023-07-30T02:48:14;18.50;99.90
3752;DHT22;50827;47.014;7.652;2023-07-30T02:50:41;18.50;99.90
3752;DHT22;50827;47.014;7.652;2023-07-30T02:53:07;18.40;99.90
3752;DHT22;50827;47.014;7.652;2023-07-30T02:55:34;18.40;99.90
3752;DHT22;50827;47.014;7.652;2023-07-30T02:58:01;18.40;99.90
3752;DHT22;50827;47.014;7.652;2023-07-30T03:00:27;18.40;99.90
3752;DHT22;50827;47.014;7.652;2023-07-30T03:02:54;18.40;99.90
3752;DHT22;50827;47.014;7.652;2023-07-30T03:05:21;18.40;99.90
3752;DHT22;50827;47.014;7.652;2023-07-30T03:07:48;18.50;99.90
3752;DHT22;50827;47.014;7.652;2023-07-30T03:10:14;18.40;99.90
3752;DHT22;50827;47.014;7.652;2023-07-30T03:12:41;18.30;99.90
3752;DHT22;50827;47.014;7.652;2023-07-30T03:15:08;18.30;99.90
3752;DHT22;50827;47.014;7.652;2023-07-30T03:17:35;18.30;99.90
3752;DHT22;50827;47.014;7.652;2023-07-30T03:20:02;18.30;99.90
3752;DHT22;50827;47.014;7.652;2023-07-30T03:22:30;18.30;99.90
3752;DHT22;50827;47.014;7.652;2023-07-30T03:24:57;18.40;99.90
3752;DHT22;50827;47.014;7.652;2023-07-30T03:27:23;18.40;99.90
3752;DHT22;50827;47.014;7.652;2023-07-30T03:29:50;18.40;99.90
3752;DHT22;50827;47.014;7.652;2023-07-30T03:32:17;18.40;99.90
3752;DHT22;50827;47.014;7.652;2023-07-30T03:34:43;18.40;99.90
3752;DHT22;50827;47.014;7.652;2023-07-30T03:37:10;18.40;99.90
3752;DHT22;50827;47.014;7.652;2023-07-30T03:39:37;18.40;99.90
3752;DHT22;50827;47.014;7.652;2023-07-30T03:42:04;18.50;99.90
3752;DHT22;50827;47.014;7.652;2023-07-30T03:44:30;18.50;99.90
3752;DHT22;50827;47.014;7.652;2023-07-30T03:46:57;18.40;99.90
3752;DHT22;50827;47.014;7.652;2023-07-30T03:49:24;18.30;99.90
3752;DHT22;50827;47.014;7.652;2023-07-30T03:51:51;18.40;99.90
3752;DHT22;50827;47.014;7.652;2023-07-30T03:54:18;18.30;99.90
3752;DHT22;50827;47.014;7.652;2023-07-30T03:56:45;18.30;99.90
3752;DHT22;50827;47.014;7.652;2023-07-30T03:59:11;18.30;99.90
3752;DHT22;50827;47.014;7.652;2023-07-30T04:01:38;18.20;99.90
3752;DHT22;50827;47.014;7.652;2023-07-30T04:04:05;18.20;99.90
3752;DHT22;50827;47.014;7.652;2023-07-30T04:06:32;18.20;99.90
3752;DHT22;50827;47.014;7.652;2023-07-30T04:08:58;18.20;99.90
3752;DHT22;50827;47.014;7.652;2023-07-30T04:11:25;18.20;99.90
3752;DHT22;50827;47.014;7.652;2023-07-30T04:13:52;18.20;99.90
3752;DHT22;50827;47.014;7.652;2023-07-30T04:16:18;18.10;99.90
3752;DHT22;50827;47.014;7.652;2023-07-30T04:18:45;18.10;99.90
3752;DHT22;50827;47.014;7.652;2023-07-30T04:21:12;18.10;99.90
3752;DHT22;50827;47.014;7.652;2023-07-30T04:23:40;18.10;99.90
3752;DHT22;50827;47.014;7.652;2023-07-30T04:26:07;18.10;99.90
3752;DHT22;50827;47.014;7.652;2023-07-30T04:28:33;18.10;99.90
3752;DHT22;50827;47.014;7.652;2023-07-30T04:31:00;18.10;99.90
3752;DHT22;50827;47.014;7.652;2023-07-30T04:33:27;18.10;99.90
3752;DHT22;50827;47.014;7.652;2023-07-30T04:35:54;18.10;99.90
3752;DHT22;50827;47.014;7.652;2023-07-30T04:38:21;18.10;99.90
3752;DHT22;50827;47.014;7.652;2023-07-30T04:40:48;18.10;99.90
3752;DHT22;50827;47.014;7.652;2023-07-30T04:43:14;18.10;99.90
3752;DHT22;50827;47.014;7.652;2023-07-30T04:45:42;18.10;99.90
3752;DHT22;50827;47.014;7.652;2023-07-30T04:48:09;18.20;99.90
3752;DHT22;50827;47.014;7.652;2023-07-30T04:50:36;18.20;99.90
3752;DHT22;50827;47.014;7.652;2023-07-30T04:53:03;18.20;99.90
3752;DHT22;50827;47.014;7.652;2023-07-30T04:55:30;18.20;99.90
3752;DHT22;50827;47.014;7.652;2023-07-30T04:57:57;18.30;99.90
3752;DHT22;50827;47.014;7.652;2023-07-30T05:00:23;18.30;99.90
3752;DHT22;50827;47.014;7.652;2023-07-30T05:02:50;18.30;99.90
3752;DHT22;50827;47.014;7.652;2023-07-30T05:05:17;18.30;99.90
3752;DHT22;50827;47.014;7.652;2023-07-30T05:07:44;18.30;99.90
3752;DHT22;50827;47.014;7.652;2023-07-30T05:10:10;18.30;99.90
3752;DHT22;50827;47.014;7.652;2023-07-30T05:12:37;18.30;99.90
3752;DHT22;50827;47.014;7.652;2023-07-30T05:15:04;18.40;99.90
3752;DHT22;50827;47.014;7.652;2023-07-30T05:17:32;18.30;99.90
3752;DHT22;50827;47.014;7.652;2023-07-30T05:19:59;18.30;99.90
3752;DHT22;50827;47.014;7.652;2023-07-30T05:22:25;18.40;99.90
3752;DHT22;50827;47.014;7.652;2023-07-30T05:24:52;18.40;99.90
3752;DHT22;50827;47.014;7.652;2023-07-30T05:27:18;18.50;99.90
3752;DHT22;50827;47.014;7.652;2023-07-30T05:29:45;18.60;99.90
3752;DHT22;50827;47.014;7.652;2023-07-30T05:32:15;18.70;99.90
3752;DHT22;50827;47.014;7.652;2023-07-30T05:34:41;18.90;99.90
3752;DHT22;50827;47.014;7.652;2023-07-30T05:37:08;19.00;99.90
3752;DHT22;50827;47.014;7.652;2023-07-30T05:39:35;19.10;99.90
3752;DHT22;50827;47.014;7.652;2023-07-30T05:42:02;19.10;99.90
3752;DHT22;50827;47.014;7.652;2023-07-30T05:44:28;19.10;99.90
3752;DHT22;50827;47.014;7.652;2023-07-30T05:46:55;19.20;99.90
3752;DHT22;50827;47.014;7.652;2023-07-30T05:49:22;19.00;99.90
3752;DHT22;50827;47.014;7.652;2023-07-30T05:51:48;19.10;99.90
3752;DHT22;50827;47.014;7.652;2023-07-30T05:54:16;19.00;99.90
3752;DHT22;50827;47.014;7.652;2023-07-30T05:56:43;19.10;99.90
3752;DHT22;50827;47.014;7.652;2023-07-30T05:59:09;19.10;99.90
3752;DHT22;50827;47.014;7.652;2023-07-30T06:01:36;19.20;99.90
3752;DHT22;50827;47.014;7.652;2023-07-30T06:04:04;19.20;99.90
3752;DHT22;50827;47.014;7.652;2023-07-30T06:06:30;19.20;99.90
3752;DHT22;50827;47.014;7.652;2023-07-30T06:08:57;19.30;99.90
3752;DHT22;50827;47.014;7.652;2023-07-30T06:11:25;19.50;99.90
3752;DHT22;50827;47.014;7.652;2023-07-30T06:13:51;19.60;99.90
3752;DHT22;50827;47.014;7.652;2023-07-30T06:16:18;19.70;99.90
3752;DHT22;50827;47.014;7.652;2023-07-30T06:18:47;19.70;99.90
3752;DHT22;50827;47.014;7.652;2023-07-30T06:21:14;19.80;99.90
3752;DHT22;50827;47.014;7.652;2023-07-30T06:23:40;19.90;99.90
3752;DHT22;50827;47.014;7.652;2023-07-30T06:26:07;19.90;99.90
3752;DHT22;50827;47.014;7.652;2023-07-30T06:28:34;19.80;99.90
3752;DHT22;50827;47.014;7.652;2023-07-30T06:31:01;19.80;99.90
3752;DHT22;50827;47.014;7.652;2023-07-30T06:33:29;19.90;99.90
3752;DHT22;50827;47.014;7.652;2023-07-30T06:35:58;19.90;99.90
3752;DHT22;50827;47.014;7.652;2023-07-30T06:38:25;19.90;99.90
3752;DHT22;50827;47.014;7.652;2023-07-30T06:40:52;19.90;99.90
3752;DHT22;50827;47.014;7.652;2023-07-30T06:43:22;19.90;99.90
3752;DHT22;50827;47.014;7.652;2023-07-30T06:45:49;19.90;99.90
3752;DHT22;50827;47.014;7.652;2023-07-30T06:48:15;19.90;99.90
3752;DHT22;50827;47.014;7.652;2023-07-30T06:50:42;20.00;99.90
3752;DHT22;50827;47.014;7.652;2023-07-30T06:53:09;19.90;99.90
3752;DHT22;50827;47.014;7.652;2023-07-30T06:55:35;20.00;99.90
3752;DHT22;50827;47.014;7.652;2023-07-30T06:58:02;20.00;99.90
3752;DHT22;50827;47.014;7.652;2023-07-30T07:00:29;20.10;99.90
3752;DHT22;50827;47.014;7.652;2023-07-30T07:02:56;20.20;99.90
3752;DHT22;50827;47.014;7.652;2023-07-30T07:05:22;20.20;99.90
3752;DHT22;50827;47.014;7.652;2023-07-30T07:07:49;20.20;99.90
3752;DHT22;50827;47.014;7.652;2023-07-30T07:10:16;20.20;99.90
3752;DHT22;50827;47.014;7.652;2023-07-30T07:12:43;20.30;99.90
3752;DHT22;50827;47.014;7.652;2023-07-30T07:15:09;20.30;99.90
3752;DHT22;50827;47.014;7.652;2023-07-30T07:17:36;20.50;99.90
3752;DHT22;50827;47.014;7.652;2023-07-30T07:20:03;20.50;99.90
3752;DHT22;50827;47.014;7.652;2023-07-30T07:22:31;20.50;99.90
3752;DHT22;50827;47.014;7.652;2023-07-30T07:24:58;20.50;99.90
3752;DHT22;50827;47.014;7.652;2023-07-30T07:27:25;20.60;99.90
3752;DHT22;50827;47.014;7.652;2023-07-30T07:29:52;20.70;99.90
3752;DHT22;50827;47.014;7.652;2023-07-30T07:32:19;20.80;99.90
3752;DHT22;50827;47.014;7.652;2023-07-30T07:34:49;20.80;99.90
3752;DHT22;50827;47.014;7.652;2023-07-30T07:37:16;20.90;99.90
3752;DHT22;50827;47.014;7.652;2023-07-30T07:39:45;20.90;99.90
3752;DHT22;50827;47.014;7.652;2023-07-30T07:42:12;20.90;99.90
3752;DHT22;50827;47.014;7.652;2023-07-30T07:44:39;20.80;99.90
3752;DHT22;50827;47.014;7.652;2023-07-30T07:47:06;20.80;99.90
3752;DHT22;50827;47.014;7.652;2023-07-30T07:49:32;20.80;99.90
3752;DHT22;50827;47.014;7.652;2023-07-30T07:51:59;20.80;99.90
3752;DHT22;50827;47.014;7.652;2023-07-30T07:54:26;20.90;99.90
3752;DHT22;50827;47.014;7.652;2023-07-30T07:56:53;20.90;99.90
3752;DHT22;50827;47.014;7.652;2023-07-30T07:59:19;20.90;99.90
3752;DHT22;50827;47.014;7.652;2023-07-30T08:01:46;20.90;99.90
3752;DHT22;50827;47.014;7.652;2023-07-30T08:04:13;20.80;99.90
3752;DHT22;50827;47.014;7.652;2023-07-30T08:06:40;20.80;99.90
3752;DHT22;50827;47.014;7.652;2023-07-30T08:09:06;20.70;99.90
3752;DHT22;50827;47.014;7.652;2023-07-30T08:11:33;20.70;99.90
3752;DHT22;50827;47.014;7.652;2023-07-30T08:14:03;20.80;99.90
3752;DHT22;50827;47.014;7.652;2023-07-30T08:16:29;20.80;99.90
3752;DHT22;50827;47.014;7.652;2023-07-30T08:18:56;20.90;99.90
3752;DHT22;50827;47.014;7.652;2023-07-30T08:21:23;20.90;99.90
3752;DHT22;50827;47.014;7.652;2023-07-30T08:23:50;20.90;99.90
3752;DHT22;50827;47.014;7.652;2023-07-30T08:26:16;21.00;99.90
3752;DHT22;50827;47.014;7.652;2023-07-30T08:28:43;21.00;99.90
3752;DHT22;50827;47.014;7.652;2023-07-30T08:31:10;21.00;99.90
3752;DHT22;50827;47.014;7.652;2023-07-30T08:33:36;21.10;99.90
3752;DHT22;50827;47.014;7.652;2023-07-30T08:36:03;21.10;99.90
3752;DHT22;50827;47.014;7.652;2023-07-30T08:38:30;21.00;99.90
3752;DHT22;50827;47.014;7.652;2023-07-30T08:40:57;21.10;99.90
3752;DHT22;50827;47.014;7.652;2023-07-30T08:43:24;21.20;99.90
3752;DHT22;50827;47.014;7.652;2023-07-30T08:45:50;21.20;99.90
3752;DHT22;50827;47.014;7.652;2023-07-30T08:48:17;21.30;99.90
3752;DHT22;50827;47.014;7.652;2023-07-30T08:50:45;21.30;99.90
3752;DHT22;50827;47.014;7.652;2023-07-30T08:53:13;21.30;99.90
3752;DHT22;50827;47.014;7.652;2023-07-30T08:55:40;21.30;99.90
3752;DHT22;50827;47.014;7.652;2023-07-30T08:58:09;21.40;99.90
3752;DHT22;50827;47.014;7.652;2023-07-30T09:00:38;21.50;99.90
3752;DHT22;50827;47.014;7.652;2023-07-30T09:03:08;21.50;99.90
3752;DHT22;50827;47.014;7.652;2023-07-30T09:05:35;21.60;99.90
3752;DHT22;50827;47.014;7.652;2023-07-30T09:08:03;21.70;99.90
3752;DHT22;50827;47.014;7.652;2023-07-30T09:10:30;21.70;99.90
3752;DHT22;50827;47.014;7.652;2023-07-30T09:12:57;21.70;99.90
3752;DHT22;50827;47.014;7.652;2023-07-30T09:15:38;21.70;99.90
3752;DHT22;50827;47.014;7.652;2023-07-30T09:18:06;21.60;99.90
3752;DHT22;50827;47.014;7.652;2023-07-30T09:20:40;21.40;99.90
3752;DHT22;50827;47.014;7.652;2023-07-30T09:23:07;21.50;99.90
3752;DHT22;50827;47.014;7.652;2023-07-30T09:25:35;21.70;99.90
3752;DHT22;50827;47.014;7.652;2023-07-30T09:28:03;21.70;99.90
3752;DHT22;50827;47.014;7.652;2023-07-30T09:30:30;21.80;99.90
3752;DHT22;50827;47.014;7.652;2023-07-30T09:32:57;21.90;99.90
3752;DHT22;50827;47.014;7.652;2023-07-30T09:35:25;22.10;99.90
3752;DHT22;50827;47.014;7.652;2023-07-30T09:38:03;22.10;99.90
3752;DHT22;50827;47.014;7.652;2023-07-30T09:40:36;22.20;99.90
3752;DHT22;50827;47.014;7.652;2023-07-30T09:43:04;22.20;99.90
3752;DHT22;50827;47.014;7.652;2023-07-30T09:45:36;22.20;99.90
3752;DHT22;50827;47.014;7.652;2023-07-30T09:48:05;22.20;99.90
3752;DHT22;50827;47.014;7.652;2023-07-30T09:50:33;22.20;99.90
3752;DHT22;50827;47.014;7.652;2023-07-30T09:53:02;22.20;99.90
3752;DHT22;50827;47.014;7.652;2023-07-30T09:55:29;22.20;99.90
3752;DHT22;50827;47.014;7.652;2023-07-30T09:57:57;22.20;99.90
3752;DHT22;50827;47.014;7.652;2023-07-30T10:00:23;22.30;99.90
3752;DHT22;50827;47.014;7.652;2023-07-30T10:02:52;22.20;99.90
3752;DHT22;50827;47.014;7.652;2023-07-30T10:05:24;22.10;99.90
3752;DHT22;50827;47.014;7.652;2023-07-30T10:08:12;22.20;99.90
3752;DHT22;50827;47.014;7.652;2023-07-30T10:10:41;22.30;99.90
3752;DHT22;50827;47.014;7.652;2023-07-30T10:13:09;22.40;99.90
3752;DHT22;50827;47.014;7.652;2023-07-30T10:15:38;22.40;99.90
3752;DHT22;50827;47.014;7.652;2023-07-30T10:18:05;22.40;99.90
3752;DHT22;50827;47.014;7.652;2023-07-30T10:20:32;22.50;99.90
3752;DHT22;50827;47.014;7.652;2023-07-30T10:23:00;22.60;99.90
3752;DHT22;50827;47.014;7.652;2023-07-30T10:25:56;22.60;99.90
3752;DHT22;50827;47.014;7.652;2023-07-30T10:33:49;22.70;99.90
3752;DHT22;50827;47.014;7.652;2023-07-30T10:36:18;22.70;99.90
3752;DHT22;50827;47.014;7.652;2023-07-30T10:38:46;22.70;99.90
3752;DHT22;50827;47.014;7.652;2023-07-30T10:41:14;22.70;99.90
3752;DHT22;50827;47.014;7.652;2023-07-30T10:43:46;22.70;99.90
3752;DHT22;50827;47.014;7.652;2023-07-30T10:46:18;22.70;99.90
3752;DHT22;50827;47.014;7.652;2023-07-30T10:48:47;22.70;99.90
3752;DHT22;50827;47.014;7.652;2023-07-30T10:51:16;22.80;99.90
3752;DHT22;50827;47.014;7.652;2023-07-30T10:53:52;22.80;99.90
3752;DHT22;50827;47.014;7.652;2023-07-30T10:56:22;22.90;99.90
3752;DHT22;50827;47.014;7.652;2023-07-30T10:58:52;22.90;99.90
3752;DHT22;50827;47.014;7.652;2023-07-30T11:01:20;22.90;99.90
3752;DHT22;50827;47.014;7.652;2023-07-30T11:03:50;22.90;99.90
3752;DHT22;50827;47.014;7.652;2023-07-30T11:06:24;22.80;99.90
3752;DHT22;50827;47.014;7.652;2023-07-30T11:08:51;22.90;99.90
3752;DHT22;50827;47.014;7.652;2023-07-30T11:11:18;23.00;99.90
3752;DHT22;50827;47.014;7.652;2023-07-30T11:13:46;23.00;99.90
3752;DHT22;50827;47.014;7.652;2023-07-30T11:16:14;23.00;99.90
3752;DHT22;50827;47.014;7.652;2023-07-30T11:18:43;23.10;99.90
3752;DHT22;50827;47.014;7.652;2023-07-30T11:21:11;23.10;99.90
3752;DHT22;50827;47.014;7.652;2023-07-30T11:23:39;23.20;99.90
3752;DHT22;50827;47.014;7.652;2023-07-30T11:26:09;23.20;99.90
3752;DHT22;50827;47.014;7.652;2023-07-30T11:28:39;23.30;99.90
3752;DHT22;50827;47.014;7.652;2023-07-30T11:31:09;23.30;99.90
3752;DHT22;50827;47.014;7.652;2023-07-30T11:33:39;23.40;99.90
3752;DHT22;50827;47.014;7.652;2023-07-30T11:36:09;23.50;99.90
3752;DHT22;50827;47.014;7.652;2023-07-30T11:38:38;23.60;99.90
3752;DHT22;50827;47.014;7.652;2023-07-30T11:41:05;23.60;99.90
3752;DHT22;50827;47.014;7.652;2023-07-30T11:43:37;23.70;99.90
3752;DHT22;50827;47.014;7.652;2023-07-30T11:46:11;23.70;99.90
3752;DHT22;50827;47.014;7.652;2023-07-30T11:48:40;23.80;99.90
3752;DHT22;50827;47.014;7.652;2023-07-30T11:56:24;23.80;99.90
3752;DHT22;50827;47.014;7.652;2023-07-30T11:58:55;23.90;99.90
3752;DHT22;50827;47.014;7.652;2023-07-30T12:01:24;23.90;99.90
3752;DHT22;50827;47.014;7.652;2023-07-30T12:04:00;23.90;99.90
3752;DHT22;50827;47.014;7.652;2023-07-30T12:06:46;24.00;99.90
3752;DHT22;50827;47.014;7.652;2023-07-30T12:09:16;24.10;99.90
3752;DHT22;50827;47.014;7.652;2023-07-30T12:14:18;24.20;99.90
3752;DHT22;50827;47.014;7.652;2023-07-30T12:16:45;24.20;99.90
3752;DHT22;50827;47.014;7.652;2023-07-30T12:19:11;24.30;99.90
3752;DHT22;50827;47.014;7.652;2023-07-30T12:21:38;24.30;99.90
3752;DHT22;50827;47.014;7.652;2023-07-30T12:24:05;24.30;99.90
3752;DHT22;50827;47.014;7.652;2023-07-30T12:26:32;24.30;99.90
3752;DHT22;50827;47.014;7.652;2023-07-30T12:28:59;24.20;99.90
3752;DHT22;50827;47.014;7.652;2023-07-30T12:31:26;24.20;99.90
3752;DHT22;50827;47.014;7.652;2023-07-30T12:33:52;24.30;99.90
3752;DHT22;50827;47.014;7.652;2023-07-30T12:36:19;24.20;99.90
3752;DHT22;50827;47.014;7.652;2023-07-30T12:38:46;24.20;99.90
3752;DHT22;50827;47.014;7.652;2023-07-30T12:41:13;24.20;99.90
3752;DHT22;50827;47.014;7.652;2023-07-30T12:43:40;24.20;99.90
3752;DHT22;50827;47.014;7.652;2023-07-30T12:46:07;24.20;99.90
3752;DHT22;50827;47.014;7.652;2023-07-30T12:48:33;24.30;99.90
3752;DHT22;50827;47.014;7.652;2023-07-30T12:51:00;24.30;99.90
3752;DHT22;50827;47.014;7.652;2023-07-30T12:53:27;24.40;99.90
3752;DHT22;50827;47.014;7.652;2023-07-30T12:55:54;24.30;99.90
3752;DHT22;50827;47.014;7.652;2023-07-30T12:58:20;24.30;99.90
3752;DHT22;50827;47.014;7.652;2023-07-30T13:00:47;24.40;99.90
3752;DHT22;50827;47.014;7.652;2023-07-30T13:03:14;24.50;99.90
3752;DHT22;50827;47.014;7.652;2023-07-30T13:05:41;24.50;99.90
3752;DHT22;50827;47.014;7.652;2023-07-30T13:08:07;24.60;99.90
3752;DHT22;50827;47.014;7.652;2023-07-30T13:10:34;24.50;99.90
3752;DHT22;50827;47.014;7.652;2023-07-30T13:13:02;24.60;99.90
3752;DHT22;50827;47.014;7.652;2023-07-30T13:15:28;24.70;99.90
3752;DHT22;50827;47.014;7.652;2023-07-30T13:17:55;24.80;99.90
3752;DHT22;50827;47.014;7.652;2023-07-30T13:20:22;24.60;99.90
3752;DHT22;50827;47.014;7.652;2023-07-30T13:22:52;24.60;99.90
3752;DHT22;50827;47.014;7.652;2023-07-30T13:25:20;24.70;99.90
3752;DHT22;50827;47.014;7.652;2023-07-30T13:27:47;24.60;99.90
3752;DHT22;50827;47.014;7.652;2023-07-30T13:30:14;24.60;99.90
3752;DHT22;50827;47.014;7.652;2023-07-30T13:32:41;24.60;99.90
3752;DHT22;50827;47.014;7.652;2023-07-30T13:35:08;24.70;99.90
3752;DHT22;50827;47.014;7.652;2023-07-30T13:37:35;24.80;99.90
3752;DHT22;50827;47.014;7.652;2023-07-30T13:40:01;24.90;99.90
3752;DHT22;50827;47.014;7.652;2023-07-30T13:42:28;24.90;99.90
3752;DHT22;50827;47.014;7.652;2023-07-30T13:44:55;25.00;99.90
3752;DHT22;50827;47.014;7.652;2023-07-30T13:47:22;25.00;99.90
3752;DHT22;50827;47.014;7.652;2023-07-30T13:49:48;24.90;99.90
3752;DHT22;50827;47.014;7.652;2023-07-30T13:52:15;24.90;99.90
3752;DHT22;50827;47.014;7.652;2023-07-30T13:54:42;25.00;99.90
3752;DHT22;50827;47.014;7.652;2023-07-30T13:57:24;25.00;99.90
3752;DHT22;50827;47.014;7.652;2023-07-30T13:59:54;25.00;99.90
3752;DHT22;50827;47.014;7.652;2023-07-30T14:02:21;25.00;99.90
3752;DHT22;50827;47.014;7.652;2023-07-30T14:04:48;25.00;99.90
3752;DHT22;50827;47.014;7.652;2023-07-30T14:07:15;25.10;99.90
3752;DHT22;50827;47.014;7.652;2023-07-30T14:09:41;25.20;99.90
3752;DHT22;50827;47.014;7.652;2023-07-30T14:12:09;25.30;99.90
3752;DHT22;50827;47.014;7.652;2023-07-30T14:14:36;25.30;99.90
3752;DHT22;50827;47.014;7.652;2023-07-30T14:17:03;25.30;99.90
3752;DHT22;50827;47.014;7.652;2023-07-30T14:19:33;25.10;99.90
3752;DHT22;50827;47.014;7.652;2023-07-30T14:22:00;25.10;99.90
3752;DHT22;50827;47.014;7.652;2023-07-30T14:24:27;25.10;99.90
3752;DHT22;50827;47.014;7.652;2023-07-30T14:26:54;25.20;99.90
3752;DHT22;50827;47.014;7.652;2023-07-30T14:29:21;25.20;99.90
3752;DHT22;50827;47.014;7.652;2023-07-30T14:31:48;25.30;99.90
3752;DHT22;50827;47.014;7.652;2023-07-30T14:34:15;25.30;99.90
3752;DHT22;50827;47.014;7.652;2023-07-30T14:36:42;25.30;99.90
3752;DHT22;50827;47.014;7.652;2023-07-30T14:39:09;25.30;99.90
3752;DHT22;50827;47.014;7.652;2023-07-30T14:41:37;25.30;99.90
3752;DHT22;50827;47.014;7.652;2023-07-30T14:44:05;25.20;99.90
3752;DHT22;50827;47.014;7.652;2023-07-30T14:46:31;25.30;99.90
3752;DHT22;50827;47.014;7.652;2023-07-30T14:48:58;25.30;99.90
3752;DHT22;50827;47.014;7.652;2023-07-30T14:51:25;25.40;99.90
3752;DHT22;50827;47.014;7.652;2023-07-30T14:53:52;25.40;99.90
3752;DHT22;50827;47.014;7.652;2023-07-30T14:56:18;25.30;99.90
3752;DHT22;50827;47.014;7.652;2023-07-30T14:58:45;25.40;99.90
3752;DHT22;50827;47.014;7.652;2023-07-30T15:01:12;25.50;99.90
3752;DHT22;50827;47.014;7.652;2023-07-30T15:03:39;25.50;99.90
3752;DHT22;50827;47.014;7.652;2023-07-30T15:06:05;25.50;99.90
3752;DHT22;50827;47.014;7.652;2023-07-30T15:08:32;25.50;99.90
3752;DHT22;50827;47.014;7.652;2023-07-30T15:10:59;25.60;99.90
3752;DHT22;50827;47.014;7.652;2023-07-30T15:13:26;25.60;99.90
3752;DHT22;50827;47.014;7.652;2023-07-30T15:15:54;25.60;99.90
3752;DHT22;50827;47.014;7.652;2023-07-30T15:18:21;25.60;99.90
3752;DHT22;50827;47.014;7.652;2023-07-30T15:20:48;25.60;99.90
3752;DHT22;50827;47.014;7.652;2023-07-30T15:23:15;25.60;99.90
3752;DHT22;50827;47.014;7.652;2023-07-30T15:25:43;25.70;99.90
3752;DHT22;50827;47.014;7.652;2023-07-30T15:28:10;25.70;99.90
3752;DHT22;50827;47.014;7.652;2023-07-30T15:30:37;25.80;99.90
3752;DHT22;50827;47.014;7.652;2023-07-30T15:33:07;25.80;99.90
3752;DHT22;50827;47.014;7.652;2023-07-30T15:35:35;25.80;99.90
3752;DHT22;50827;47.014;7.652;2023-07-30T15:38:05;25.90;99.90
3752;DHT22;50827;47.014;7.652;2023-07-30T15:40:33;25.90;99.90
3752;DHT22;50827;47.014;7.652;2023-07-30T15:43:02;25.80;99.90
3752;DHT22;50827;47.014;7.652;2023-07-30T15:45:30;25.80;99.90
3752;DHT22;50827;47.014;7.652;2023-07-30T15:47:57;25.80;99.90
3752;DHT22;50827;47.014;7.652;2023-07-30T15:50:27;25.70;99.90
3752;DHT22;50827;47.014;7.652;2023-07-30T15:52:54;25.60;99.90
3752;DHT22;50827;47.014;7.652;2023-07-30T15:55:20;25.60;99.90
3752;DHT22;50827;47.014;7.652;2023-07-30T15:57:47;25.70;99.90
3752;DHT22;50827;47.014;7.652;2023-07-30T16:00:14;25.60;99.90